Latest Coastal Weather Observations for Hogan Island

IDT60701

Issued at 7:52 am EDT Thursday 14 December 2017 (issued every 10 minutes, with the page automatically refreshed every 10 minutes)

About coastal observations | Map of coastal stations | Coastal observations for TAS | Marine services | Other Formats
Station Details ID: 200838 Name: HOGAN ISLAND Lat: -39.22 Lon: 146.98 Height: 116.0 m
Data from the previous 72 hours. | See also: Recent months at Hogan Island
Date/Time
EDT
Temp
°C
Wind Pressure Rain since
9am
mm
Weather Cloud Vis
km
Sea
Height
m
Swell
Dir  Spd
kts
Gust
kts
hPa Trend Height
m
Period
s
Dir
14/07:30am 18.8 W 30 33 1001.3 - 0.0 - - - - - - -
14/07:09am 19.1 W 31 34 1001.2 - 0.0 - - - - - - -
14/07:00am 19.6 W 19 25 1001.6 - 0.0 - - - - - - -
14/06:30am 20.7 N 10 15 1001.2 - 0.0 - - - - - - -
14/06:00am 22.2 N 10 15 1000.7 - 0.0 - - - - - - -
14/05:30am 19.9 W 18 23 1001.2 - 0.0 - - - - - - -
14/05:00am 19.8 W 16 21 1000.9 - 0.0 - - - - - - -
14/04:30am 18.7 W 16 19 1000.8 - 0.0 - - - - - - -
14/04:00am 18.8 W 19 22 1000.4 - 0.0 - - - - - - -
14/03:30am 19.4 W 16 19 1000.3 - 0.0 - - - - - - -
14/03:00am 20.4 W 17 21 1000.1 - 0.0 - - - - - - -
14/02:30am 21.6 WNW 26 31 1000.6 - 0.0 - - - - - - -
14/02:25am 22.5 WNW 27 31 1000.6 - 0.0 - - - - - - -
14/02:00am 20.9 NNW 23 31 1001.0 - 0.0 - - - - - - -
14/01:55am 20.5 NNW 19 26 1001.1 - 0.0 - - - - - - -
14/01:30am 21.8 N 28 32 1000.6 - 0.0 - - - - - - -
14/01:00am 20.1 N 23 34 1001.1 - 0.0 - - - - - - -
14/12:57am 20.4 N 24 37 1001.4 - 0.0 - - - - - - -
14/12:52am 20.6 N 26 37 1000.9 - 0.0 - - - - - - -
14/12:50am 19.9 NW 27 37 1001.6 - 0.0 - - - - - - -
14/12:30am 20.5 NNE 27 32 1000.5 - 0.0 - - - - - - -
14/12:00am 21.0 NE 29 35 1000.5 - 0.0 - - - - - - -
 
Date/Time
EDT
Temp
°C
Wind Pressure Rain since
9am
mm
Weather Cloud Vis
km
Sea
Height
m
Swell
Dir  Spd
kts
Gust
kts
hPa Trend Height
m
Period
s
Dir
13/11:30pm 21.1 NE 29 34 1001.1 - 0.0 - - - - - - -
13/11:00pm 21.2 NE 32 41 1001.4 - 0.0 - - - - - - -
13/10:30pm 21.1 NNE 30 39 1002.1 - 0.0 - - - - - - -
13/10:00pm 19.4 NE 27 37 1002.9 - 0.0 - - - - - - -
13/09:56pm 19.7 NE 27 37 1002.9 - 0.0 - - - - - - -
13/09:30pm 19.0 NE 27 33 1003.3 - 0.0 - - - - - - -
13/09:00pm 19.1 NE 27 31 1003.4 - 0.0 - - - - - - -
13/08:30pm 20.1 NE 23 30 1003.9 - 0.0 - - - - - - -
13/08:00pm 19.4 NE 19 23 1004.2 - 0.0 - - - - - - -
13/07:30pm 19.9 NE 17 21 1004.5 - 0.0 - - - - - - -
13/07:00pm 19.2 NE 14 20 1004.7 - 0.0 - - - - - - -
13/06:30pm 20.4 ENE 14 19 1004.9 - 0.0 - - - - - - -
13/06:00pm 20.7 ENE 15 20 1004.8 - 0.0 - - - - - - -
13/05:30pm 20.3 ENE 13 17 1005.3 - 0.0 - - - - - - -
13/05:00pm 20.9 ENE 13 18 1005.7 - 0.0 - - - - - - -
13/04:30pm 20.5 ENE 12 15 1006.1 - 0.0 - - - - - - -
13/04:00pm 20.3 ENE 12 15 1006.4 - 0.0 - - - - - - -
13/03:30pm 20.6 ENE 12 16 1006.9 - 0.0 - - - - - - -
13/03:00pm 19.9 ENE 12 15 1007.0 - 0.0 - - - - - - -
13/02:30pm 19.3 ENE 13 15 1007.5 - 0.0 - - - - - - -
13/02:00pm 18.7 ENE 12 16 1008.0 - 0.0 - - - - - - -
13/01:30pm 19.0 NE 12 16 1008.3 - 0.0 - - - - - - -
13/01:00pm 18.2 ENE 13 14 1008.8 - 0.0 - - - - - - -
13/12:30pm 18.4 NE 14 16 1009.1 - 0.0 - - - - - - -
13/12:00pm 17.9 ENE 15 17 1009.2 - 0.0 - - - - - - -
13/11:30am 17.3 NE 16 19 1009.7 - 0.0 - - - - - - -
13/11:00am 17.4 NE 17 19 1010.0 - 0.0 - - - - - - -
13/10:30am 17.6 ENE 18 20 1010.1 - 0.0 - - - - - - -
13/10:00am 17.2 ENE 18 21 1010.3 - 0.0 - - - - - - -
13/09:30am 17.7 NE 18 20 1010.5 - 0.0 - - - - - - -
13/09:00am 17.5 NE 18 22 1010.7 - 0.2 - - - - - - -
13/08:30am 17.0 NE 18 22 1010.9 - 0.2 - - - - - - -
13/08:00am 16.7 ENE 17 19 1011.0 - 0.2 - - - - - - -
13/07:30am 16.4 ENE 16 18 1011.0 - 0.2 - - - - - - -
13/07:00am 16.1 ENE 16 19 1011.1 - 0.2 - - - - - - -
13/06:30am 16.0 ENE 17 19 1011.1 - 0.2 - - - - - - -
13/06:00am 15.5 ENE 16 17 1011.0 - 0.2 - - - - - - -
13/05:30am 15.3 NE 14 16 1011.4 - 0.2 - - - - - - -
13/05:00am 15.1 ENE 15 17 1011.3 - 0.2 - - - - - - -
13/04:30am 14.9 ENE 15 16 1011.5 - 0.2 - - - - - - -
13/04:00am 14.9 ENE 14 16 1011.8 - 0.0 - - - - - - -
13/03:30am 14.8 ENE 14 15 1012.2 - 0.0 - - - - - - -
13/03:00am 14.6 NE 13 15 1012.4 - 0.0 - - - - - - -
13/02:30am 14.5 NE 13 15 1013.2 - 0.0 - - - - - - -
13/02:00am 14.5 NE 14 16 1013.5 - 0.0 - - - - - - -
13/01:30am 14.5 NE 15 17 1013.6 - 0.0 - - - - - - -
13/01:00am 14.3 NE 14 16 1014.1 - 0.0 - - - - - - -
13/12:30am 14.0 NE 13 16 1014.6 - 0.0 - - - - - - -
13/12:00am 13.9 NNE 12 14 1014.9 - 0.0 - - - - - - -
 
Date/Time
EDT
Temp
°C
Wind Pressure Rain since
9am
mm
Weather Cloud Vis
km
Sea
Height
m
Swell
Dir  Spd
kts
Gust
kts
hPa Trend Height
m
Period
s
Dir
12/11:30pm 13.6 NNE 9 10 1015.6 - 0.0 - - - - - - -
12/11:00pm 13.8 NNE 13 16 1015.4 - 0.0 - - - - - - -
12/10:30pm 14.0 NNE 11 13 1015.7 - 0.0 - - - - - - -
12/10:00pm 13.9 NNE 12 14 1015.5 - 0.0 - - - - - - -
12/09:30pm 13.9 NNE 11 13 1015.5 - 0.0 - - - - - - -
12/09:00pm 13.7 NE 9 11 1015.0 - 0.0 - - - - - - -
12/08:30pm 13.7 NNE 6 7 1015.2 - 0.0 - - - - - - -
12/08:00pm 15.2 WNW 1 3 1015.5 - 0.0 - - - - - - -
12/07:30pm 16.3 WSW 6 7 1015.6 - 0.0 - - - - - - -
12/07:00pm 16.2 WSW 7 9 1015.7 - 0.0 - - - - - - -
12/06:30pm 17.3 WSW 10 13 1015.6 - 0.0 - - - - - - -
12/06:00pm 17.6 WSW 12 14 1015.4 - 0.0 - - - - - - -
12/05:30pm 18.4 SW 13 15 1015.9 - 0.0 - - - - - - -
12/05:00pm 18.1 WSW 12 14 1016.0 - 0.0 - - - - - - -
12/04:30pm 18.5 WSW 14 16 1016.2 - 0.0 - - - - - - -
12/04:00pm 19.3 WSW 16 18 1016.3 - 0.0 - - - - - - -
12/03:30pm 19.0 WSW 15 17 1016.4 - 0.0 - - - - - - -
12/03:00pm 19.5 WSW 14 16 1016.5 - 0.0 - - - - - - -
12/02:30pm 19.4 WSW 14 16 1016.7 - 0.0 - - - - - - -
12/02:00pm 19.6 WSW 15 17 1016.9 - 0.0 - - - - - - -
12/01:30pm 19.3 W 16 19 1017.2 - 0.0 - - - - - - -
12/01:00pm 18.9 W 16 18 1017.4 - 0.0 - - - - - - -
12/12:30pm 18.8 W 15 18 1017.7 - 0.0 - - - - - - -
12/12:00pm 18.3 W 14 17 1017.4 - 0.0 - - - - - - -
12/11:30am 17.5 WNW 15 17 1017.7 - 0.0 - - - - - - -
12/11:00am 17.0 WNW 17 19 1017.9 - 0.0 - - - - - - -
12/10:30am 17.7 WNW 17 19 1018.1 - 0.0 - - - - - - -
12/10:00am 16.8 W 15 19 1018.3 - 0.0 - - - - - - -
12/09:30am 16.3 WNW 15 18 1018.4 - 0.0 - - - - - - -
12/09:00am 16.2 WNW 13 17 1018.4 - 0.0 - - - - - - -
12/08:30am 15.3 WNW 14 18 1018.5 - 0.0 - - - - - - -
12/08:00am 14.9 W 16 18 1018.2 - 0.0 - - - - - - -
12/07:30am 15.3 W 14 18 1018.0 - 0.0 - - - - - - -
12/07:00am 14.4 W 16 19 1018.1 - 0.0 - - - - - - -
12/06:30am 14.1 W 18 24 1017.9 - 0.0 - - - - - - -
12/06:00am 14.0 W 17 23 1017.7 - 0.0 - - - - - - -
12/05:30am 14.0 W 17 20 1017.5 - 0.0 - - - - - - -
12/05:00am 14.2 W 16 23 1017.3 - 0.0 - - - - - - -
12/04:30am 14.2 W 17 25 1017.1 - 0.0 - - - - - - -
12/04:00am 14.2 W 19 23 1017.4 - 0.0 - - - - - - -
12/03:30am 14.2 W 20 25 1017.8 - 0.0 - - - - - - -
12/03:00am 14.2 W 21 26 1017.8 - 0.0 - - - - - - -
12/02:30am 14.1 W 21 26 1018.0 - 0.0 - - - - - - -
12/02:00am 14.3 W 19 24 1018.4 - 0.0 - - - - - - -
12/01:30am 14.4 W 20 24 1018.7 - 0.0 - - - - - - -
12/01:00am 14.4 W 20 27 1019.0 - 0.0 - - - - - - -
12/12:30am 14.3 W 22 26 1019.2 - 0.0 - - - - - - -
12/12:00am 14.3 W 22 27 1019.1 - 0.0 - - - - - - -
 
Date/Time
EDT
Temp
°C
Wind Pressure Rain since
9am
mm
Weather Cloud Vis
km
Sea
Height
m
Swell
Dir  Spd
kts
Gust
kts
hPa Trend Height
m
Period
s
Dir
11/11:30pm 14.3 W 25 30 1019.2 - 0.0 - - - - - - -
11/11:00pm 14.4 W 25 31 1019.2 - 0.0 - - - - - - -
11/10:30pm 14.3 W 24 28 1019.3 - 0.0 - - - - - - -
11/10:00pm 14.3 W 25 28 1019.4 - 0.0 - - - - - - -
11/09:30pm 14.4 W 23 26 1019.3 - 0.0 - - - - - - -
11/09:00pm 14.4 W 25 28 1019.0 - 0.0 - - - - - - -
11/08:30pm 14.5 W 23 27 1019.1 - 0.0 - - - - - - -
11/08:00pm 14.9 W 24 28 1019.0 - 0.0 - - - - - - -
11/07:30pm 15.5 W 25 30 1019.0 - 0.0 - - - - - - -
11/07:00pm 16.1 W 24 29 1018.9 - 0.0 - - - - - - -
11/06:30pm 15.9 WSW 23 30 1018.9 - 0.0 - - - - - - -
11/06:00pm 17.0 W 25 28 1018.6 - 0.0 - - - - - - -
11/05:30pm 16.1 WSW 23 27 1018.9 - 0.0 - - - - - - -
11/05:00pm 16.8 WSW 25 29 1019.1 - 0.0 - - - - - - -
11/04:30pm 16.2 W 23 26 1019.0 - 0.0 - - - - - - -
11/04:00pm 17.5 W 24 27 1019.1 - 0.0 - - - - - - -
11/03:30pm 17.8 W 22 25 1019.2 - 0.0 - - - - - - -
11/03:00pm 18.0 W 22 26 1019.3 - 0.0 - - - - - - -
11/02:30pm 17.3 W 22 25 1019.6 - 0.0 - - - - - - -
11/02:00pm 17.7 W 22 26 1019.7 - 0.0 - - - - - - -
11/01:30pm 17.6 W 21 25 1020.1 - 0.0 - - - - - - -
11/01:00pm 15.8 WSW 20 27 1020.3 - 0.0 - - - - - - -
11/12:30pm 17.6 W 22 25 1020.6 - 0.0 - - - - - - -
11/12:00pm 16.5 W 20 23 1020.4 - 0.0 - - - - - - -
11/11:30am 18.6 W 20 24 1020.7 - 0.0 - - - - - - -
11/11:00am 16.7 W 20 23 1020.6 - 0.0 - - - - - - -
11/10:30am 17.7 W 21 23 1020.9 - 0.0 - - - - - - -
11/10:00am 15.7 W 20 25 1021.0 - 0.0 - - - - - - -
11/09:30am 15.6 W 20 24 1020.9 - 0.0 - - - - - - -
11/09:00am 15.4 W 19 22 1020.7 - 0.0 - - - - - - -
11/08:30am 15.2 WSW 22 25 1020.7 - 0.0 - - - - - - -
11/08:00am 14.7 W 20 23 1020.5 - 0.0 - - - - - - -

Other Formats:

Comma delimited format used in spreadsheet applications
http://www.bom.gov.au/fwo/IDT60701/IDT60701.94949.axf

JavaScript Object Notation format (JSON) in row-major order
http://www.bom.gov.au/fwo/IDT60701/IDT60701.94949.json